createdAt,value
2023-04-25T00:00:16.331Z,15.88
2023-04-25T00:02:48.523Z,15.73
2023-04-25T00:05:19.703Z,16.95
2023-04-25T00:07:50.298Z,17.67
2023-04-25T00:10:21.128Z,16.13
2023-04-25T00:12:51.391Z,15.57
2023-04-25T00:15:21.880Z,14.68
2023-04-25T00:17:54.895Z,14.13
2023-04-25T00:20:27.109Z,14.80
2023-04-25T00:22:57.465Z,15.63
2023-04-25T00:25:28.010Z,16.98
2023-04-25T00:27:59.127Z,16.30
2023-04-25T00:30:29.325Z,17.95
2023-04-25T00:32:59.903Z,18.35
2023-04-25T00:35:29.871Z,20.27
2023-04-25T00:38:00.114Z,20.08
2023-04-25T00:40:30.920Z,18.85
2023-04-25T00:43:02.588Z,18.60
2023-04-25T00:45:33.816Z,19.38
2023-04-25T00:48:05.042Z,18.05
2023-04-25T00:50:39.039Z,17.27
2023-04-25T00:53:09.861Z,18.63
2023-04-25T00:55:40.979Z,16.80
2023-04-25T00:58:11.850Z,17.63
2023-04-25T01:00:43.415Z,18.90
2023-04-25T01:03:15.139Z,18.55
2023-04-25T01:05:46.860Z,16.35
2023-04-25T01:08:17.457Z,16.52
2023-04-25T01:10:47.660Z,19.00
2023-04-25T01:13:18.578Z,19.02
2023-04-25T01:15:49.899Z,18.42
2023-04-25T01:18:22.587Z,17.23
2023-04-25T01:20:54.448Z,17.95
2023-04-25T01:23:25.450Z,16.77
2023-04-25T01:25:58.743Z,19.15
2023-04-25T01:28:29.913Z,20.30
2023-04-25T01:31:00.238Z,20.58
2023-04-25T01:33:30.463Z,19.38
2023-04-25T01:36:00.925Z,21.33
2023-04-25T01:38:32.189Z,20.38
2023-04-25T01:41:03.964Z,19.33
2023-04-25T01:43:34.965Z,17.10
2023-04-25T01:46:04.999Z,17.20
2023-04-25T01:48:35.724Z,17.73
2023-04-25T01:51:06.011Z,17.25
2023-04-25T01:53:36.716Z,17.05
2023-04-25T01:56:08.024Z,17.35
2023-04-25T01:58:39.483Z,15.90
2023-04-25T02:01:34.100Z,17.85
2023-04-25T02:04:19.031Z,16.02
2023-04-25T02:06:49.857Z,17.38
2023-04-25T02:09:20.517Z,15.73
2023-04-25T02:11:58.669Z,19.42
2023-04-25T02:14:51.703Z,17.42
2023-04-25T02:17:42.547Z,17.15
2023-04-25T02:20:14.656Z,17.90
2023-04-25T02:22:44.989Z,17.05
2023-04-25T02:25:18.278Z,17.20
2023-04-25T02:27:50.116Z,17.13
2023-04-25T02:30:22.671Z,18.20
2023-04-25T02:32:52.993Z,53.55
2023-04-25T02:35:24.017Z,18.10
2023-04-25T02:37:57.263Z,16.98
2023-04-25T02:40:28.724Z,18.10
2023-04-25T02:42:58.999Z,17.02
2023-04-25T02:45:32.530Z,18.25
2023-04-25T02:48:03.507Z,17.67
2023-04-25T02:50:36.030Z,17.33
2023-04-25T02:53:06.756Z,19.23
2023-04-25T02:55:44.073Z,16.83
2023-04-25T02:58:15.178Z,17.05
2023-04-25T03:00:54.646Z,16.98
2023-04-25T03:03:28.643Z,17.15
2023-04-25T03:05:59.005Z,16.92
2023-04-25T03:08:36.633Z,16.75
2023-04-25T03:11:09.359Z,17.42
2023-04-25T03:13:40.610Z,16.92
2023-04-25T03:16:12.427Z,17.40
2023-04-25T03:18:43.238Z,16.63
2023-04-25T03:21:14.529Z,15.90
2023-04-25T03:23:44.554Z,20.50
2023-04-25T03:26:16.459Z,19.95
2023-04-25T03:28:48.039Z,20.58
2023-04-25T03:31:18.528Z,22.95
2023-04-25T03:33:49.292Z,22.50
2023-04-25T03:36:22.214Z,22.30
2023-04-25T03:38:52.847Z,22.17
2023-04-25T03:41:25.323Z,22.52
2023-04-25T03:43:59.077Z,23.63
2023-04-25T03:46:31.444Z,23.15
2023-04-25T03:49:04.955Z,21.88
2023-04-25T03:51:55.034Z,23.33
2023-04-25T03:54:26.520Z,22.95
2023-04-25T03:57:01.141Z,23.58
2023-04-25T03:59:35.223Z,21.55
2023-04-25T04:02:06.896Z,23.70
2023-04-25T04:04:40.049Z,23.92
2023-04-25T04:07:13.550Z,25.65
2023-04-25T04:09:49.853Z,24.17
2023-04-25T04:12:27.978Z,23.20
2023-04-25T04:14:58.889Z,22.52
2023-04-25T04:17:30.435Z,22.40
2023-04-25T04:20:01.874Z,23.20
2023-04-25T04:22:35.065Z,21.75
2023-04-25T04:25:10.600Z,23.92
2023-04-25T04:28:09.310Z,25.30
2023-04-25T04:30:54.588Z,25.80
2023-04-25T04:33:25.636Z,24.15
2023-04-25T04:36:09.854Z,21.83
2023-04-25T04:38:43.319Z,30.17
2023-04-25T04:41:23.144Z,22.65
2023-04-25T04:44:13.612Z,22.48
2023-04-25T04:47:08.858Z,21.35
2023-04-25T04:50:18.340Z,21.38
2023-04-25T04:53:24.153Z,21.50
2023-04-25T04:56:27.604Z,21.80
2023-04-25T04:59:09.818Z,23.08
2023-04-25T05:02:12.564Z,22.15
2023-04-25T05:05:12.160Z,21.15
2023-04-25T05:08:00.388Z,22.02
2023-04-25T05:10:45.039Z,21.27
2023-04-25T05:13:30.634Z,22.67
2023-04-25T05:16:24.187Z,21.10
2023-04-25T05:19:21.157Z,18.98
2023-04-25T05:21:58.648Z,19.20
2023-04-25T05:24:41.205Z,23.13
2023-04-25T05:27:34.410Z,17.63
2023-04-25T05:30:05.374Z,18.13
2023-04-25T05:32:50.439Z,19.45
2023-04-25T05:35:21.076Z,14.63
2023-04-25T05:37:52.752Z,15.32
2023-04-25T05:40:31.732Z,16.40
2023-04-25T05:43:20.171Z,15.07
2023-04-25T05:46:12.738Z,15.30
2023-04-25T05:48:58.141Z,14.95
2023-04-25T05:51:47.721Z,14.43
2023-04-25T05:54:21.310Z,14.93
2023-04-25T05:56:52.183Z,14.23
2023-04-25T05:59:24.957Z,15.90
2023-04-25T06:01:55.322Z,16.05
2023-04-25T06:04:27.963Z,14.48
2023-04-25T06:06:59.711Z,18.60
2023-04-25T06:09:30.225Z,15.32
2023-04-25T06:12:01.162Z,14.75
2023-04-25T06:14:32.858Z,14.60
2023-04-25T06:17:08.427Z,14.82
2023-04-25T06:19:38.683Z,22.50
2023-04-25T06:22:10.149Z,19.02
2023-04-25T06:24:43.740Z,16.15
2023-04-25T06:27:16.452Z,13.55
2023-04-25T06:29:48.201Z,13.27
2023-04-25T06:32:20.225Z,12.30
2023-04-25T06:34:50.753Z,12.48
2023-04-25T06:37:21.226Z,13.40
2023-04-25T06:39:52.219Z,12.25
2023-04-25T06:42:22.199Z,12.93
2023-04-25T06:45:02.426Z,12.30
2023-04-25T06:47:34.576Z,13.07
2023-04-25T06:50:05.758Z,13.93
2023-04-25T06:52:37.475Z,12.25
2023-04-25T06:55:13.919Z,12.32
2023-04-25T06:58:18.947Z,11.60
2023-04-25T07:01:07.806Z,12.25
2023-04-25T07:03:40.248Z,11.60
2023-04-25T07:06:17.352Z,12.10
2023-04-25T07:08:48.267Z,12.32
2023-04-25T07:11:18.188Z,11.95
2023-04-25T07:13:48.985Z,13.30
2023-04-25T07:16:19.805Z,11.00
2023-04-25T07:18:50.641Z,10.50
2023-04-25T07:21:23.650Z,10.63
2023-04-25T07:23:54.749Z,9.90
2023-04-25T07:26:30.794Z,11.50
2023-04-25T07:29:19.344Z,10.30
2023-04-25T07:31:50.210Z,10.95
2023-04-25T07:34:20.803Z,9.50
2023-04-25T07:36:51.169Z,14.07
2023-04-25T07:39:22.069Z,9.52
2023-04-25T07:41:55.055Z,10.55
2023-04-25T07:44:32.591Z,10.20
2023-04-25T07:47:05.803Z,10.13
2023-04-25T07:49:40.552Z,10.73
2023-04-25T07:52:11.487Z,11.40
2023-04-25T07:54:50.211Z,10.38
2023-04-25T07:57:26.436Z,10.70
2023-04-25T07:59:58.918Z,18.23
2023-04-25T08:02:30.628Z,8.65
2023-04-25T08:05:02.513Z,8.98
2023-04-25T08:07:33.783Z,8.93
2023-04-25T08:10:08.866Z,7.63
2023-04-25T08:12:39.291Z,7.78
2023-04-25T08:15:11.490Z,8.43
2023-04-25T08:17:43.785Z,7.32
2023-04-25T08:20:14.948Z,10.05
2023-04-25T08:22:46.426Z,7.30
2023-04-25T08:25:34.807Z,7.25
2023-04-25T08:28:06.388Z,7.00
2023-04-25T08:30:38.327Z,7.60
2023-04-25T08:33:10.727Z,6.95
2023-04-25T08:36:10.827Z,12.38
2023-04-25T08:38:44.365Z,7.40
2023-04-25T08:41:16.314Z,7.85
2023-04-25T08:43:47.912Z,7.10
2023-04-25T08:46:20.697Z,7.80
2023-04-25T08:49:17.158Z,7.43
2023-04-25T08:51:55.316Z,7.32
2023-04-25T08:54:35.367Z,7.85
2023-04-25T08:57:09.921Z,7.50
2023-04-25T08:59:42.884Z,7.65
2023-04-25T09:02:19.894Z,8.63
2023-04-25T09:05:02.166Z,6.32
2023-04-25T09:07:33.824Z,6.90
2023-04-25T09:10:05.680Z,8.15
2023-04-25T09:12:42.416Z,20.35
2023-04-25T09:15:20.593Z,13.40
2023-04-25T09:18:01.670Z,7.30
2023-04-25T09:21:00.737Z,9.52
2023-04-25T09:23:43.159Z,6.70
2023-04-25T09:26:16.795Z,7.32
2023-04-25T09:28:51.382Z,8.48
2023-04-25T09:31:26.464Z,7.60
2023-04-25T09:34:06.735Z,7.63
2023-04-25T09:36:47.419Z,7.88
2023-04-25T09:39:35.865Z,8.40
2023-04-25T09:42:14.890Z,7.47
2023-04-25T09:44:46.528Z,7.55
2023-04-25T09:47:19.982Z,7.82
2023-04-25T09:49:52.629Z,7.60
2023-04-25T09:52:26.084Z,8.07
2023-04-25T09:55:08.268Z,8.40
2023-04-25T09:57:42.471Z,8.98
2023-04-25T10:00:14.410Z,8.25
2023-04-25T10:02:46.064Z,8.23
2023-04-25T10:05:33.906Z,7.53
2023-04-25T10:08:06.414Z,7.07
2023-04-25T10:10:38.651Z,6.40
2023-04-25T10:13:40.747Z,6.80
2023-04-25T10:16:21.734Z,6.35
2023-04-25T10:18:58.462Z,7.05
2023-04-25T10:21:30.718Z,9.77
2023-04-25T10:24:05.232Z,8.23
2023-04-25T10:26:35.939Z,8.43
2023-04-25T10:29:06.463Z,8.35
2023-04-25T10:31:47.194Z,8.93
2023-04-25T10:34:19.372Z,8.13
2023-04-25T10:36:56.947Z,7.85
2023-04-25T10:39:29.492Z,9.05
2023-04-25T10:42:02.709Z,8.18
2023-04-25T10:44:34.229Z,9.60
2023-04-25T10:47:09.339Z,8.45
2023-04-25T10:49:44.027Z,8.57
2023-04-25T10:52:27.012Z,9.05
2023-04-25T10:54:59.002Z,8.57
2023-04-25T10:57:39.532Z,9.35
2023-04-25T11:00:34.167Z,7.55
2023-04-25T11:03:19.102Z,8.25
2023-04-25T11:05:58.159Z,7.93
2023-04-25T11:08:52.968Z,7.13
2023-04-25T11:11:24.281Z,8.55
2023-04-25T11:13:57.520Z,9.98
2023-04-25T11:16:35.971Z,9.05
2023-04-25T11:19:06.933Z,8.63
2023-04-25T11:21:37.227Z,9.27
2023-04-25T11:24:08.586Z,11.77
2023-04-25T11:26:39.765Z,9.10
2023-04-25T11:29:11.025Z,9.55
2023-04-25T11:31:46.179Z,9.75
2023-04-25T11:34:21.991Z,7.88
2023-04-25T11:36:53.002Z,9.98
2023-04-25T11:39:24.051Z,9.25
2023-04-25T11:41:55.544Z,8.88
2023-04-25T11:44:26.564Z,9.57
2023-04-25T11:46:58.190Z,10.63
2023-04-25T11:49:34.080Z,10.13
2023-04-25T11:52:05.035Z,11.00
2023-04-25T11:54:38.015Z,10.80
2023-04-25T11:57:08.901Z,11.45
2023-04-25T11:59:40.528Z,11.40
2023-04-25T12:02:11.078Z,11.02
2023-04-25T12:04:43.893Z,11.73
2023-04-25T12:07:15.828Z,11.23
2023-04-25T12:09:46.395Z,11.00
2023-04-25T12:12:17.614Z,11.50
2023-04-25T12:15:00.130Z,11.77
2023-04-25T12:17:33.828Z,14.82
2023-04-25T12:20:08.513Z,11.95
2023-04-25T12:22:39.581Z,12.45
2023-04-25T12:25:10.334Z,11.68
2023-04-25T12:27:43.150Z,11.90
2023-04-25T12:30:14.127Z,12.18
2023-04-25T12:32:44.652Z,10.75
2023-04-25T12:35:15.346Z,11.00
2023-04-25T12:37:46.534Z,11.07
2023-04-25T12:40:16.833Z,11.20
2023-04-25T12:42:47.585Z,11.68
2023-04-25T12:45:19.032Z,9.52
2023-04-25T12:47:49.119Z,10.15
2023-04-25T12:50:19.584Z,12.40
2023-04-25T12:52:50.113Z,10.95
2023-04-25T12:55:20.556Z,10.20
2023-04-25T12:57:51.049Z,11.13
2023-04-25T13:00:22.116Z,10.93
2023-04-25T13:02:53.131Z,9.60
2023-04-25T13:05:23.591Z,10.10
2023-04-25T13:07:54.891Z,9.40
2023-04-25T13:10:25.859Z,9.32
2023-04-25T13:12:57.128Z,9.65
2023-04-25T13:15:28.140Z,10.13
2023-04-25T13:17:58.681Z,11.18
2023-04-25T13:20:29.079Z,10.75
2023-04-25T13:23:01.017Z,10.52
2023-04-25T13:25:33.074Z,10.55
2023-04-25T13:28:12.315Z,8.73
2023-04-25T13:30:43.180Z,10.05
2023-04-25T13:33:14.445Z,12.00
2023-04-25T13:35:45.535Z,10.43
2023-04-25T13:38:18.309Z,12.60
2023-04-25T13:40:49.150Z,12.63
2023-04-25T13:43:20.656Z,10.43
2023-04-25T13:45:52.104Z,8.10
2023-04-25T13:48:23.092Z,8.35
2023-04-25T13:50:54.559Z,7.28
2023-04-25T13:53:25.050Z,8.40
2023-04-25T13:55:55.634Z,8.23
2023-04-25T13:58:26.185Z,7.35
2023-04-25T14:00:57.604Z,7.25
2023-04-25T14:03:28.295Z,7.53
2023-04-25T14:05:59.137Z,7.38
2023-04-25T14:08:30.855Z,8.10
2023-04-25T14:11:01.179Z,8.55
2023-04-25T14:13:31.712Z,7.40
2023-04-25T14:16:02.200Z,7.35
2023-04-25T14:18:32.203Z,6.95
2023-04-25T14:21:02.137Z,8.77
2023-04-25T14:23:32.136Z,7.30
2023-04-25T14:26:03.166Z,8.02
2023-04-25T14:28:34.157Z,8.20
2023-04-25T14:31:04.709Z,8.02
2023-04-25T14:33:36.105Z,7.60
2023-04-25T14:36:08.231Z,8.02
2023-04-25T14:38:38.259Z,7.53
2023-04-25T14:41:08.972Z,8.20
2023-04-25T14:43:39.687Z,8.27
2023-04-25T14:46:11.843Z,8.07
2023-04-25T14:48:42.272Z,8.25
2023-04-25T14:51:15.047Z,7.03
2023-04-25T14:53:45.694Z,7.32
2023-04-25T14:56:17.097Z,8.10
2023-04-25T14:58:47.748Z,7.65
2023-04-25T15:01:17.823Z,7.72
2023-04-25T15:03:48.894Z,7.75
2023-04-25T15:06:20.247Z,7.60
2023-04-25T15:08:51.239Z,7.50
2023-04-25T15:11:22.623Z,6.97
2023-04-25T15:13:54.270Z,7.93
2023-04-25T15:16:24.560Z,7.28
2023-04-25T15:18:55.226Z,7.82
2023-04-25T15:21:25.971Z,10.32
2023-04-25T15:23:57.935Z,10.52
2023-04-25T15:26:29.297Z,9.77
2023-04-25T15:28:59.952Z,10.50
2023-04-25T15:31:30.754Z,10.48
2023-04-25T15:34:01.275Z,9.73
2023-04-25T15:36:33.502Z,10.23
2023-04-25T15:39:03.689Z,9.45
2023-04-25T15:41:35.352Z,9.07
2023-04-25T15:44:08.988Z,9.90
2023-04-25T15:46:41.273Z,10.90
2023-04-25T15:49:12.821Z,10.25
2023-04-25T15:51:43.437Z,9.70
2023-04-25T15:54:13.790Z,12.00
2023-04-25T15:56:43.771Z,10.85
2023-04-25T15:59:15.680Z,10.65
2023-04-25T16:01:46.338Z,11.07
2023-04-25T16:04:17.145Z,10.85
2023-04-25T16:06:51.618Z,10.57
2023-04-25T16:09:22.720Z,10.75
2023-04-25T16:11:53.755Z,11.10
2023-04-25T16:14:23.788Z,10.18
2023-04-25T16:16:57.457Z,9.55
2023-04-25T16:19:28.739Z,10.20
2023-04-25T16:22:00.290Z,10.18
2023-04-25T16:24:30.820Z,9.02
2023-04-25T16:27:01.344Z,8.43
2023-04-25T16:29:31.769Z,10.23
2023-04-25T16:32:02.580Z,10.43
2023-04-25T16:34:33.281Z,9.13
2023-04-25T16:37:03.601Z,9.18
2023-04-25T16:39:33.840Z,11.05
2023-04-25T16:42:04.830Z,9.63
2023-04-25T16:44:35.954Z,9.63
2023-04-25T16:47:07.155Z,9.43
2023-04-25T16:49:37.332Z,8.02
2023-04-25T16:52:09.876Z,7.40
2023-04-25T16:54:39.806Z,6.00
2023-04-25T16:57:12.376Z,7.13
2023-04-25T16:59:44.092Z,7.82
2023-04-25T17:02:14.968Z,8.70
2023-04-25T17:04:45.086Z,8.57
2023-04-25T17:07:15.573Z,8.05
2023-04-25T17:09:46.620Z,8.43
2023-04-25T17:12:17.198Z,8.88
2023-04-25T17:14:48.001Z,8.30
2023-04-25T17:17:19.871Z,8.48
2023-04-25T17:19:50.971Z,7.35
2023-04-25T17:22:21.309Z,7.45
2023-04-25T17:24:52.875Z,7.38
2023-04-25T17:27:23.609Z,6.63
2023-04-25T17:29:54.645Z,6.85
2023-04-25T17:32:25.458Z,6.22
2023-04-25T17:34:56.611Z,6.75
2023-04-25T17:37:29.565Z,5.93
2023-04-25T17:40:00.165Z,7.50
2023-04-25T17:42:33.408Z,7.20
2023-04-25T17:45:03.819Z,7.88
2023-04-25T17:47:34.596Z,7.20
2023-04-25T17:50:05.862Z,6.70
2023-04-25T17:52:36.318Z,8.00
2023-04-25T17:55:07.820Z,7.03
2023-04-25T17:57:39.892Z,7.47
2023-04-25T18:00:10.880Z,6.63
2023-04-25T18:02:46.899Z,5.28
2023-04-25T18:05:17.797Z,8.30
2023-04-25T18:07:48.140Z,7.25
2023-04-25T18:10:19.860Z,7.50
2023-04-25T18:12:51.795Z,7.28
2023-04-25T18:15:23.139Z,7.38
2023-04-25T18:17:53.506Z,7.80
2023-04-25T18:20:24.871Z,6.47
2023-04-25T18:22:55.385Z,6.78
2023-04-25T18:25:25.852Z,6.65
2023-04-25T18:27:56.128Z,7.55
2023-04-25T18:30:26.607Z,6.15
2023-04-25T18:32:57.940Z,6.78
2023-04-25T18:35:28.873Z,7.40
2023-04-25T18:38:00.794Z,7.80
2023-04-25T18:40:32.678Z,7.72
2023-04-25T18:43:03.644Z,6.60
2023-04-25T18:45:34.390Z,7.28
2023-04-25T18:48:04.986Z,6.93
2023-04-25T18:50:36.408Z,7.03
2023-04-25T18:53:07.171Z,6.70
2023-04-25T18:55:40.873Z,8.02
2023-04-25T18:58:10.887Z,8.38
2023-04-25T19:00:42.684Z,7.35
2023-04-25T19:03:13.045Z,9.05
2023-04-25T19:05:44.226Z,9.57
2023-04-25T19:08:14.699Z,8.50
2023-04-25T19:10:44.940Z,9.48
2023-04-25T19:13:15.293Z,8.60
2023-04-25T19:15:46.180Z,10.10
2023-04-25T19:18:16.875Z,8.63
2023-04-25T19:20:47.639Z,9.20
2023-04-25T19:23:17.931Z,9.68
2023-04-25T19:25:48.093Z,9.27
2023-04-25T19:28:18.480Z,9.10
2023-04-25T19:30:49.033Z,10.38
2023-04-25T19:33:20.371Z,9.35
2023-04-25T19:35:50.455Z,9.50
2023-04-25T19:38:20.733Z,7.93
2023-04-25T19:40:51.502Z,7.88
2023-04-25T19:43:21.714Z,8.18
2023-04-25T19:45:53.027Z,7.70
2023-04-25T19:48:23.507Z,8.50
2023-04-25T19:50:53.497Z,8.55
2023-04-25T19:53:23.979Z,8.18
2023-04-25T19:55:54.453Z,8.55
2023-04-25T19:58:25.020Z,8.20
2023-04-25T20:00:57.216Z,7.72
2023-04-25T20:03:31.098Z,8.40
2023-04-25T20:06:02.474Z,8.27
2023-04-25T20:08:33.141Z,7.97
2023-04-25T20:11:04.768Z,8.18
2023-04-25T20:13:35.421Z,8.30
2023-04-25T20:16:06.001Z,8.60
2023-04-25T20:18:36.529Z,8.80
2023-04-25T20:21:08.639Z,8.50
2023-04-25T20:23:38.958Z,7.78
2023-04-25T20:26:12.999Z,9.27
2023-04-25T20:28:43.298Z,8.02
2023-04-25T20:31:15.862Z,8.85
2023-04-25T20:33:46.688Z,9.50
2023-04-25T20:36:17.462Z,8.25
2023-04-25T20:38:48.049Z,8.05
2023-04-25T20:41:19.546Z,7.00
2023-04-25T20:43:50.994Z,7.63
2023-04-25T20:46:21.644Z,6.88
2023-04-25T20:48:53.737Z,7.32
2023-04-25T20:51:24.242Z,6.60
2023-04-25T20:53:57.348Z,7.25
2023-04-25T20:56:28.482Z,7.88
2023-04-25T20:58:59.567Z,8.45
2023-04-25T21:01:30.164Z,9.15
2023-04-25T21:04:01.910Z,7.25
2023-04-25T21:06:36.494Z,8.23
2023-04-25T21:09:08.333Z,10.43
2023-04-25T21:11:39.587Z,9.15
2023-04-25T21:14:10.588Z,7.90
2023-04-25T21:16:41.949Z,8.60
2023-04-25T21:19:12.284Z,9.05
2023-04-25T21:21:43.092Z,9.15
2023-04-25T21:24:15.466Z,8.32
2023-04-25T21:26:46.358Z,9.40
2023-04-25T21:29:17.532Z,9.70
2023-04-25T21:31:48.048Z,8.68
2023-04-25T21:34:18.109Z,9.60
2023-04-25T21:36:48.136Z,9.48
2023-04-25T21:39:18.586Z,8.80
2023-04-25T21:41:49.526Z,11.35
2023-04-25T21:44:20.050Z,11.82
2023-04-25T21:46:51.135Z,24.92
2023-04-25T21:49:24.540Z,15.93
2023-04-25T21:51:55.796Z,18.15
2023-04-25T21:54:26.127Z,14.68
2023-04-25T21:56:56.638Z,16.20
2023-04-25T21:59:27.540Z,11.73
2023-04-25T22:01:57.655Z,11.63
2023-04-25T22:04:27.977Z,12.55
2023-04-25T22:06:58.632Z,10.40
2023-04-25T22:09:29.144Z,9.48
2023-04-25T22:11:59.784Z,9.05
2023-04-25T22:14:32.827Z,9.50
2023-04-25T22:17:03.649Z,8.90
2023-04-25T22:19:34.649Z,9.40
2023-04-25T22:22:05.148Z,8.73
2023-04-25T22:24:36.075Z,8.27
2023-04-25T22:27:07.187Z,7.85
2023-04-25T22:29:37.786Z,7.82
2023-04-25T22:32:08.879Z,6.60
2023-04-25T22:34:39.066Z,7.50
2023-04-25T22:37:09.642Z,7.47
2023-04-25T22:39:42.839Z,6.55
2023-04-25T22:42:13.168Z,7.32
2023-04-25T22:44:44.282Z,10.30
2023-04-25T22:47:14.680Z,7.05
2023-04-25T22:49:46.542Z,7.55
2023-04-25T22:52:18.194Z,7.47
2023-04-25T22:54:48.590Z,6.95
2023-04-25T22:57:19.315Z,6.95
2023-04-25T22:59:49.897Z,9.77
2023-04-25T23:02:20.837Z,7.55
2023-04-25T23:04:51.684Z,6.65
2023-04-25T23:07:22.415Z,10.07
2023-04-25T23:09:53.222Z,9.02
2023-04-25T23:12:23.899Z,8.65
2023-04-25T23:14:54.704Z,7.95
2023-04-25T23:17:24.677Z,7.60
2023-04-25T23:19:54.650Z,8.85
2023-04-25T23:22:25.955Z,7.63
2023-04-25T23:24:56.211Z,8.07
2023-04-25T23:27:29.710Z,8.15
2023-04-25T23:30:00.721Z,8.25
2023-04-25T23:32:30.646Z,8.32
2023-04-25T23:35:02.062Z,7.72
2023-04-25T23:37:35.219Z,8.18
2023-04-25T23:40:14.319Z,6.45
2023-04-25T23:42:44.939Z,10.20
2023-04-25T23:45:17.458Z,7.53
2023-04-25T23:47:48.267Z,12.60
2023-04-25T23:50:18.710Z,13.38
2023-04-25T23:52:49.744Z,12.98
2023-04-25T23:55:19.730Z,13.20
2023-04-25T23:57:50.270Z,13.23
